Time;durP1;ratioP1;P1;durP2;ratioP2;P2;SDS_P1;SDS_P2;PMS_P1;PMS_P2;Temp;Humidity;BMP_temperature;BMP_pressure;BME280_temperature;BME280_humidity;BME280_pressure;Samples;Min_cycle;Max_cycle;Signal;HPM_P1;HPM_P2
2022/09/28 00:00:49;;;;;;;18.97;10.57;;;;;;;14.02;100.00;93837.59;5114445;28;20172;-75
2022/09/28 00:03:14;;;;;;;16.23;10.33;;;;;;;13.98;100.00;93843.44;5114508;28;20177;-75
2022/09/28 00:05:40;;;;;;;16.30;10.80;;;;;;;13.94;100.00;93839.69;5114333;28;20281;-75
2022/09/28 00:08:05;;;;;;;13.63;9.23;;;;;;;13.92;100.00;93833.84;5114379;28;20169;-75
2022/09/28 00:10:30;;;;;;;15.13;9.80;;;;;;;13.91;100.00;93844.72;5114104;28;20297;-75
2022/09/28 00:12:59;;;;;;;14.70;10.03;;;;;;;13.65;100.00;93801.44;5114264;28;20255;-75
2022/09/28 00:15:24;;;;;;;15.33;9.33;;;;;;;13.78;100.00;93826.63;5114216;27;20604;-75
2022/09/28 00:17:50;;;;;;;14.70;9.20;;;;;;;13.74;100.00;93829.00;5114125;28;20177;-75
2022/09/28 00:20:16;;;;;;;18.80;10.43;;;;;;;13.67;100.00;93831.06;5113889;28;20224;-75
2022/09/28 00:22:42;;;;;;;14.27;9.00;;;;;;;13.57;100.00;93828.38;5114353;28;20534;-75
2022/09/28 00:25:08;;;;;;;15.83;9.73;;;;;;;13.53;100.00;93829.91;5113970;28;20268;-75
2022/09/28 00:27:33;;;;;;;18.60;8.60;;;;;;;13.38;100.00;93820.03;5113922;28;20176;-75
2022/09/28 00:29:58;;;;;;;11.03;8.33;;;;;;;13.40;100.00;93819.78;5113915;28;20259;-75
2022/09/28 00:32:24;;;;;;;11.87;8.57;;;;;;;13.42;100.00;93822.94;5113786;28;20183;-75
2022/09/28 00:34:50;;;;;;;14.30;8.10;;;;;;;13.13;100.00;93823.28;5113957;28;20169;-75
2022/09/28 00:37:20;;;;;;;18.17;9.37;;;;;;;12.97;100.00;93808.31;5113915;28;20327;-75
2022/09/28 00:39:47;;;;;;;12.00;8.63;;;;;;;13.12;100.00;93831.44;5113716;28;20169;-75
2022/09/28 00:42:16;;;;;;;15.20;8.50;;;;;;;13.10;100.00;93818.47;5113844;28;20197;-75
2022/09/28 00:44:51;;;;;;;11.30;8.20;;;;;;;13.11;100.00;93821.91;5113661;28;20701;-75
2022/09/28 00:47:55;;;;;;;14.90;8.33;;;;;;;13.16;100.00;93833.31;5113510;28;20180;-75
2022/09/28 00:50:32;;;;;;;11.83;7.30;;;;;;;13.09;100.00;93830.06;5113543;28;20251;-75
2022/09/28 00:53:20;;;;;;;11.33;7.73;;;;;;;13.03;100.00;93823.16;5113823;28;20164;-75
2022/09/28 00:56:02;;;;;;;11.13;7.20;;;;;;;12.91;100.00;93803.22;5113607;28;20241;-75
2022/09/28 00:58:34;;;;;;;12.53;7.33;;;;;;;13.04;100.00;93826.59;5113877;28;20179;-76
2022/09/28 01:00:59;;;;;;;9.57;7.07;;;;;;;12.90;100.00;93802.41;5112384;28;20181;-75
2022/09/28 01:03:27;;;;;;;12.70;7.20;;;;;;;13.07;100.00;93829.53;5113530;28;20173;-76
2022/09/28 01:05:54;;;;;;;9.37;6.70;;;;;;;12.88;100.00;93801.91;5113504;28;20285;-76
2022/09/28 01:08:22;;;;;;;10.33;6.90;;;;;;;13.07;100.00;93834.81;5113436;28;20177;-76
2022/09/28 01:10:48;;;;;;;7.37;5.80;;;;;;;13.06;100.00;93838.50;5113307;27;20577;-76
2022/09/28 01:13:16;;;;;;;10.40;6.83;;;;;;;12.99;100.00;93816.78;5113076;28;20180;-75
2022/09/28 01:15:55;;;;;;;11.27;5.73;;;;;;;12.78;100.00;93810.53;5113241;28;20659;-76
2022/09/28 01:18:33;;;;;;;10.17;6.37;;;;;;;12.88;100.00;93838.88;5113094;28;20180;-76
2022/09/28 01:21:05;;;;;;;11.43;7.10;;;;;;;12.89;100.00;93834.38;5111970;28;20169;-76
2022/09/28 01:23:42;;;;;;;9.33;7.00;;;;;;;12.90;100.00;93839.41;5112915;28;20230;-76
2022/09/28 01:26:40;;;;;;;10.97;6.40;;;;;;;12.87;100.00;93834.63;5113032;28;20546;-76
2022/09/28 01:29:09;;;;;;;12.57;7.47;;;;;;;12.89;100.00;93834.38;5094602;28;20181;-76
2022/09/28 01:31:36;;;;;;;9.67;6.97;;;;;;;12.77;100.00;93830.06;5113045;28;20265;-76
2022/09/28 01:34:13;;;;;;;11.50;7.27;;;;;;;12.69;100.00;93827.06;5112974;28;20537;-76
2022/09/28 01:36:45;;;;;;;13.33;7.13;;;;;;;12.78;100.00;93836.94;5112790;28;20227;-76
2022/09/28 01:39:32;;;;;;;10.47;6.73;;;;;;;12.85;100.00;93834.09;5112906;28;20670;-76
2022/09/28 01:42:03;;;;;;;10.53;7.13;;;;;;;12.74;100.00;93816.53;5112528;28;20693;-76
2022/09/28 01:44:36;;;;;;;13.33;6.17;;;;;;;12.75;100.00;93842.69;5112916;28;20189;-76
2022/09/28 01:47:03;;;;;;;10.23;7.07;;;;;;;12.76;100.00;93833.72;5112704;28;20172;-76
2022/09/28 01:49:37;;;;;;;14.77;6.73;;;;;;;12.79;100.00;93840.38;5112445;28;20199;-76
2022/09/28 01:52:29;;;;;;;10.57;7.23;;;;;;;12.77;100.00;93850.38;5112714;28;20169;-76
2022/09/28 01:55:01;;;;;;;11.67;6.03;;;;;;;12.64;100.00;93843.63;5112473;28;20664;-76
2022/09/28 01:57:38;;;;;;;10.10;5.97;;;;;;;12.63;100.00;93849.16;5112483;28;20184;-76
2022/09/28 02:00:06;;;;;;;10.87;6.40;;;;;;;12.64;100.00;93851.56;5112272;28;20222;-76
2022/09/28 02:02:38;;;;;;;10.60;6.13;;;;;;;12.65;100.00;93852.34;5112330;28;20612;-76
2022/09/28 02:05:12;;;;;;;8.80;5.50;;;;;;;12.65;100.00;93847.06;5112462;28;20196;-75
2022/09/28 02:07:44;;;;;;;8.80;6.07;;;;;;;12.53;100.00;93859.63;5111876;28;20674;-76
2022/09/28 02:10:18;;;;;;;10.40;6.80;;;;;;;12.50;100.00;93845.06;5111825;28;20185;-75
2022/09/28 02:13:06;;;;;;;12.13;5.77;;;;;;;12.56;100.00;93840.63;5112105;28;20282;-76
2022/09/28 02:15:41;;;;;;;10.07;5.77;;;;;;;12.50;100.00;93849.56;5111368;28;20185;-75
2022/09/28 02:18:08;;;;;;;10.50;5.60;;;;;;;12.48;100.00;93850.59;5112071;28;20179;-75
2022/09/28 02:20:35;;;;;;;10.93;5.47;;;;;;;12.27;100.00;93848.78;5111953;28;20181;-75
2022/09/28 02:23:03;;;;;;;11.13;5.90;;;;;;;12.15;100.00;93855.19;5111902;28;20181;-76
2022/09/28 02:25:34;;;;;;;10.17;6.40;;;;;;;12.04;100.00;93843.72;5111904;28;20196;-75
2022/09/28 02:28:04;;;;;;;7.33;5.80;;;;;;;12.13;100.00;93838.81;5111725;28;20348;-75
2022/09/28 02:30:30;;;;;;;8.63;5.90;;;;;;;12.17;100.00;93843.38;5111778;28;20177;-75
2022/09/28 02:33:02;;;;;;;12.90;5.90;;;;;;;12.30;100.00;93850.09;5111683;28;20180;-75
2022/09/28 02:35:28;;;;;;;7.53;5.83;;;;;;;12.18;100.00;93855.53;5111728;28;20169;-76
2022/09/28 02:37:54;;;;;;;8.27;5.83;;;;;;;12.20;100.00;93853.41;5111563;28;20572;-74
2022/09/28 02:40:27;;;;;;;8.03;5.93;;;;;;;12.24;100.00;93843.97;5111392;28;20172;-74
2022/09/28 02:43:15;;;;;;;10.90;6.40;;;;;;;12.31;100.00;93854.34;5111434;28;20173;-74
2022/09/28 02:46:00;;;;;;;11.97;6.47;;;;;;;12.33;100.00;93841.72;5111435;28;20231;-74
2022/09/28 02:48:47;;;;;;;11.00;6.60;;;;;;;12.04;100.00;93860.34;5111158;28;20169;-75
2022/09/28 02:51:40;;;;;;;9.43;6.43;;;;;;;11.90;100.00;93835.38;5111361;28;20176;-74
2022/09/28 02:54:15;;;;;;;9.43;7.13;;;;;;;11.98;100.00;93847.34;5109960;28;20179;-74
2022/09/28 02:56:49;;;;;;;10.83;7.37;;;;;;;11.83;100.00;93849.78;5110887;28;20229;-75
2022/09/28 02:59:41;;;;;;;12.43;8.23;;;;;;;11.84;100.00;93851.38;5110910;28;20183;-74
2022/09/28 03:02:26;;;;;;;10.40;6.87;;;;;;;11.80;100.00;93837.88;5110991;28;20579;-74
2022/09/28 03:05:10;;;;;;;10.93;6.30;;;;;;;12.01;100.00;93866.13;5111097;28;20678;-75
2022/09/28 03:07:41;;;;;;;12.60;6.57;;;;;;;12.10;100.00;93855.94;5111145;28;20565;-75
2022/09/28 03:10:09;;;;;;;9.40;5.80;;;;;;;12.13;100.00;93868.63;5111322;28;20180;-75
2022/09/28 03:12:36;;;;;;;9.33;6.90;;;;;;;12.19;100.00;93869.50;5111080;28;20180;-75
2022/09/28 03:15:20;;;;;;;10.53;7.13;;;;;;;12.18;100.00;93879.28;5110998;28;20306;-75
2022/09/28 03:17:45;;;;;;;11.63;7.50;;;;;;;12.21;100.00;93878.75;5110908;28;20673;-75
2022/09/28 03:20:11;;;;;;;12.67;8.73;;;;;;;12.30;100.00;93892.31;5110930;28;20173;-75
2022/09/28 03:22:37;;;;;;;14.23;8.53;;;;;;;12.30;100.00;93890.50;5110918;28;20179;-75
2022/09/28 03:25:04;;;;;;;12.07;8.33;;;;;;;12.31;100.00;93891.28;5110889;28;20590;-75
2022/09/28 03:27:29;;;;;;;12.87;9.03;;;;;;;12.41;100.00;93886.13;5110711;28;20180;-75
2022/09/28 03:29:55;;;;;;;12.60;7.67;;;;;;;12.44;100.00;93899.66;5110838;28;20169;-75
2022/09/28 03:32:21;;;;;;;13.23;8.40;;;;;;;12.40;100.00;93890.63;5110680;28;20533;-75
2022/09/28 03:34:46;;;;;;;12.93;8.40;;;;;;;12.28;100.00;93858.25;5111130;28;20175;-75
2022/09/28 03:37:11;;;;;;;13.10;7.63;;;;;;;12.58;100.00;93897.44;5110770;28;20217;-75
2022/09/28 03:39:37;;;;;;;14.90;8.30;;;;;;;12.58;100.00;93899.28;5111113;28;20276;-75
2022/09/28 03:42:02;;;;;;;9.23;6.90;;;;;;;12.57;100.00;93887.91;5110649;28;20173;-75
2022/09/28 03:44:28;;;;;;;13.27;7.87;;;;;;;12.60;100.00;93892.72;5110487;28;20587;-75
2022/09/28 03:46:53;;;;;;;12.10;6.87;;;;;;;12.61;100.00;93886.38;5110485;28;20173;-75
2022/09/28 03:49:18;;;;;;;10.37;6.50;;;;;;;12.65;100.00;93892.75;5110776;28;20668;-75
2022/09/28 03:51:44;;;;;;;11.37;6.47;;;;;;;12.68;100.00;93880.91;5110605;28;20232;-75
2022/09/28 03:54:09;;;;;;;10.07;7.17;;;;;;;12.70;100.00;93892.03;5110602;28;20543;-75
2022/09/28 03:56:34;;;;;;;10.13;6.73;;;;;;;12.69;100.00;93887.78;5110583;28;20172;-75
2022/09/28 03:59:02;;;;;;;10.50;6.80;;;;;;;12.72;100.00;93900.47;5105677;28;20207;-75
2022/09/28 04:01:27;;;;;;;9.20;6.67;;;;;;;12.71;100.00;93888.34;5101697;28;20173;-75
2022/09/28 04:03:56;;;;;;;13.50;6.40;;;;;;;12.79;100.00;93888.72;5110484;28;20176;-75
2022/09/28 04:06:22;;;;;;;9.03;6.13;;;;;;;12.66;100.00;93872.44;5110361;28;20627;-75
2022/09/28 04:08:48;;;;;;;12.57;6.47;;;;;;;12.64;100.00;93888.50;5110365;28;20181;-75
2022/09/28 04:11:13;;;;;;;9.37;6.37;;;;;;;12.67;100.00;93892.50;5110227;28;20567;-75
2022/09/28 04:13:39;;;;;;;9.33;5.70;;;;;;;12.72;100.00;93888.06;5110274;28;20702;-75
2022/09/28 04:16:04;;;;;;;11.43;7.70;;;;;;;12.74;100.00;93890.47;5108948;28;20172;-75
2022/09/28 04:18:31;;;;;;;8.07;6.17;;;;;;;12.78;100.00;93888.94;5110361;28;20254;-75
2022/09/28 04:21:02;;;;;;;8.87;6.07;;;;;;;12.78;100.00;93888.94;5110326;28;20169;-75
2022/09/28 04:23:28;;;;;;;13.70;5.67;;;;;;;12.85;100.00;93900.09;5110313;28;20229;-75
2022/09/28 04:25:53;;;;;;;11.40;5.73;;;;;;;12.82;100.00;93887.38;5110215;28;20193;-75
2022/09/28 04:31:09;;;;;;;10.27;5.97;;;;;;;12.98;100.00;93896.25;5110285;28;20184;-75
2022/09/28 04:33:34;;;;;;;12.00;6.17;;;;;;;13.00;100.00;93900.25;5113828;28;20181;-75
2022/09/28 04:35:59;;;;;;;8.10;5.80;;;;;;;13.05;100.00;93897.69;5113939;28;20619;-75
2022/09/28 04:38:25;;;;;;;9.77;5.60;;;;;;;13.13;100.00;93894.63;5113948;28;20177;-75
2022/09/28 04:40:50;;;;;;;11.03;7.43;;;;;;;12.92;100.00;93870.84;5107496;28;20338;-75
2022/09/28 04:43:15;;;;;;;7.60;5.80;;;;;;;13.03;100.00;93891.84;5103537;28;20169;-75
2022/09/28 04:45:41;;;;;;;10.20;5.90;;;;;;;13.13;100.00;93896.44;5113512;28;20667;-75
2022/09/28 04:48:06;;;;;;;12.33;7.00;;;;;;;13.05;100.00;93895.03;5113580;28;20177;-75
2022/09/28 04:50:32;;;;;;;10.10;6.33;;;;;;;13.16;100.00;93888.81;5113570;28;20277;-75
2022/09/28 04:53:00;;;;;;;12.57;6.57;;;;;;;13.32;100.00;93899.56;5113581;28;20173;-76
2022/09/28 04:55:27;;;;;;;7.50;5.87;;;;;;;13.32;100.00;93881.06;5113790;28;20248;-76
2022/09/28 04:57:53;;;;;;;11.77;6.97;;;;;;;13.70;100.00;93874.72;5113551;28;20172;-76
2022/09/28 05:00:18;;;;;;;9.17;5.63;;;;;;;14.54;99.86;93893.22;5101330;28;20172;-76
2022/09/28 05:02:44;;;;;;;8.50;5.67;;;;;;;15.58;98.01;93881.53;5110262;28;20299;-76
2022/09/28 05:05:09;;;;;;;11.13;7.63;;;;;;;16.61;91.98;93897.84;5109198;28;20228;-76
2022/09/28 05:07:35;;;;;;;20.90;10.93;;;;;;;16.81;87.37;93897.78;5106648;28;20182;-76
2022/09/28 05:10:00;;;;;;;25.33;16.50;;;;;;;16.52;86.26;93907.41;5113121;28;20196;-76
2022/09/28 05:12:25;;;;;;;21.70;14.02;;;;;;;16.06;87.39;93896.91;5110629;28;20264;-76
2022/09/28 05:14:51;;;;;;;20.83;15.38;;;;;;;15.90;88.73;93897.19;5112718;28;20181;-76
2022/09/28 05:17:16;;;;;;;20.98;14.38;;;;;;;15.81;88.55;93905.69;5113262;28;20184;-76
2022/09/28 05:19:42;;;;;;;21.30;14.82;;;;;;;15.49;89.99;93902.47;5113114;28;20168;-76
2022/09/28 05:22:12;;;;;;;20.15;13.95;;;;;;;15.84;92.50;93910.44;5113209;28;20226;-76
2022/09/28 05:24:38;;;;;;;20.15;13.25;;;;;;;17.65;88.81;93917.25;5113332;27;20254;-76
2022/09/28 05:27:03;;;;;;;1999.90;999.90;;;;;;;19.75;77.78;93897.56;5113299;28;20173;-76
2022/09/28 05:29:29;;;;;;;1999.90;999.90;;;;;;;21.99;68.21;93921.56;5112988;28;20556;-77
2022/09/28 05:31:54;;;;;;;461.77;395.13;;;;;;;23.72;61.46;93930.34;5113005;28;20238;-75
2022/09/28 05:34:20;;;;;;;146.30;59.55;;;;;;;25.15;56.58;93931.56;5112769;28;20200;-75
2022/09/28 05:36:45;;;;;;;350.45;83.72;;;;;;;26.03;53.31;93921.81;5112766;28;20228;-75
2022/09/28 05:39:11;;;;;;;128.05;61.72;;;;;;;26.63;51.48;93924.75;5111492;28;20188;-75
2022/09/28 05:41:36;;;;;;;67.53;48.97;;;;;;;27.16;50.21;93933.03;5111286;28;20205;-74
2022/09/28 05:44:01;;;;;;;15.15;13.60;;;;;;;27.48;47.95;93923.25;5104623;28;20300;-75
2022/09/28 05:46:27;;;;;;;11.38;7.40;;;;;;;28.04;47.88;93924.16;5112631;28;20173;-74
2022/09/28 05:48:53;;;;;;;13.23;7.32;;;;;;;28.74;46.87;93913.72;5106995;28;20177;-74
2022/09/28 05:51:19;;;;;;;25.10;14.50;;;;;;;29.45;44.34;93915.50;5111458;28;20575;-75
2022/09/28 05:53:44;;;;;;;13.38;10.90;;;;;;;30.32;43.42;93923.22;5112468;28;20173;-76
2022/09/28 05:56:10;;;;;;;28.40;9.65;;;;;;;30.95;42.69;93918.22;5111767;28;20176;-74
2022/09/28 05:58:35;;;;;;;12.77;7.93;;;;;;;31.37;40.31;93920.09;5111628;28;20237;-74
2022/09/28 06:01:01;;;;;;;9.30;6.80;;;;;;;31.72;40.25;93920.66;5112855;28;20582;-74
2022/09/28 06:03:26;;;;;;;8.20;6.75;;;;;;;32.17;39.84;93919.72;5112064;28;20165;-74
2022/09/28 06:05:52;;;;;;;8.77;7.25;;;;;;;32.28;39.70;93913.63;5111938;28;20188;-74
2022/09/28 06:08:18;;;;;;;9.55;6.90;;;;;;;31.34;40.48;93923.53;5112263;28;20675;-74
2022/09/28 06:10:43;;;;;;;9.43;6.90;;;;;;;30.87;42.05;93919.25;5111862;28;20314;-74
2022/09/28 06:13:10;;;;;;;9.93;6.93;;;;;;;29.46;43.98;93922.50;5112095;28;20255;-74
2022/09/28 06:15:37;;;;;;;9.80;7.38;;;;;;;27.55;47.64;93921.56;5111953;28;20173;-74
2022/09/28 06:18:10;;;;;;;12.30;7.75;;;;;;;25.76;51.55;93932.00;5111759;28;20184;-74
2022/09/28 06:20:39;;;;;;;11.00;7.85;;;;;;;24.02;55.47;93913.28;5111783;28;20181;-73
2022/09/28 06:23:05;;;;;;;12.23;7.80;;;;;;;22.75;60.19;93930.41;5112013;28;20609;-76
2022/09/28 06:25:30;;;;;;;11.35;7.57;;;;;;;21.52;63.45;93928.28;5111797;28;20994;-76
2022/09/28 06:28:22;;;;;;;14.88;8.25;;;;;;;20.40;67.69;93921.66;5111885;28;20211;-76
2022/09/28 06:30:48;;;;;;;13.85;8.00;;;;;;;19.73;70.86;93912.28;5107812;28;20237;-76
2022/09/28 06:33:14;;;;;;;13.75;8.43;;;;;;;19.01;74.21;93914.34;5112001;28;20263;-76
2022/09/28 06:35:39;;;;;;;15.98;7.60;;;;;;;18.39;76.26;93906.22;5111550;28;20228;-75
2022/09/28 06:38:05;;;;;;;11.57;8.02;;;;;;;18.06;77.49;93917.75;5111702;28;20161;-76
2022/09/28 06:40:31;;;;;;;12.90;8.20;;;;;;;17.93;79.64;93913.84;5110582;28;20180;-76
2022/09/28 06:43:15;;;;;;;18.45;7.63;;;;;;;18.69;81.53;93913.13;5112025;28;20699;-76
2022/09/28 06:45:41;;;;;;;12.45;7.38;;;;;;;19.83;75.02;93926.28;5111285;28;20211;-77
2022/09/28 06:48:09;;;;;;;13.73;7.32;;;;;;;19.47;73.85;93909.19;5111854;28;20201;-77
2022/09/28 06:50:37;;;;;;;14.60;7.63;;;;;;;18.92;74.57;93919.53;5111712;28;20207;-77
2022/09/28 06:53:05;;;;;;;15.18;9.07;;;;;;;18.40;77.32;93931.81;5111389;28;20176;-77
2022/09/28 06:55:31;;;;;;;17.73;9.23;;;;;;;17.87;78.49;93927.47;5110933;28;20177;-77
2022/09/28 06:58:05;;;;;;;15.85;10.13;;;;;;;17.52;80.22;93936.50;5111596;28;20184;-76
2022/09/28 07:00:33;;;;;;;26.08;15.02;;;;;;;17.55;81.81;93930.63;5111592;28;20228;-77
2022/09/28 07:03:01;;;;;;;31.83;17.02;;;;;;;17.58;80.93;93938.03;5111621;28;20665;-77
2022/09/28 07:05:28;;;;;;;26.35;15.52;;;;;;;17.59;81.23;93924.47;5111426;28;20341;-77
2022/09/28 07:07:54;;;;;;;24.52;16.90;;;;;;;18.27;85.22;93932.44;5111420;28;20202;-77
2022/09/28 07:10:22;;;;;;;31.45;16.45;;;;;;;19.15;77.02;93944.56;5111571;28;20184;-77
2022/09/28 07:12:49;;;;;;;27.95;15.65;;;;;;;19.43;74.73;93934.88;5111442;28;20180;-77
2022/09/28 07:15:14;;;;;;;31.52;18.13;;;;;;;19.71;75.85;93947.31;5111299;28;20305;-77
2022/09/28 07:17:39;;;;;;;28.58;17.50;;;;;;;20.08;74.29;93954.47;5111202;28;20276;-77
2022/09/28 07:20:05;;;;;;;24.52;16.88;;;;;;;20.39;73.91;93946.78;5109829;28;20519;-77
2022/09/28 07:22:31;;;;;;;23.88;15.98;;;;;;;20.57;70.26;93943.25;5111379;28;20177;-77
2022/09/28 07:24:56;;;;;;;21.17;14.48;;;;;;;21.18;72.08;93957.38;5111302;28;20201;-77
2022/09/28 07:27:22;;;;;;;25.80;14.02;;;;;;;21.42;66.49;93957.94;5111463;28;20558;-77
2022/09/28 07:29:47;;;;;;;27.55;16.70;;;;;;;21.86;71.27;93951.88;5111496;28;20200;-77
2022/09/28 07:32:13;;;;;;;23.23;14.18;;;;;;;22.00;65.11;93941.94;5111399;28;20173;-79
2022/09/28 07:34:44;;;;;;;19.55;11.57;;;;;;;21.75;64.24;93961.25;5111827;28;20592;-79
2022/09/28 07:37:11;;;;;;;18.20;11.20;;;;;;;21.45;65.32;93952.75;5111818;28;20224;-79
2022/09/28 07:41:10;;;;;;;25.50;11.75;;;;;;;21.71;65.56;93952.22;5111957;28;20263;-79
2022/09/28 07:42:23;;;;;;;23.10;11.07;;;;;;;21.66;65.17;93963.06;5110241;28;20176;-80
2022/09/28 07:44:49;;;;;;;20.45;10.25;;;;;;;21.44;66.60;93956.56;5111408;28;20659;-77
2022/09/28 07:47:16;;;;;;;43.28;24.02;;;;;;;21.32;67.48;93952.81;5107431;28;20173;-77
2022/09/28 07:49:43;;;;;;;27.42;13.95;;;;;;;21.32;67.35;93955.47;5111353;28;20180;-78
2022/09/28 07:52:09;;;;;;;23.33;13.02;;;;;;;21.12;67.20;93935.22;5111483;28;20263;-78
2022/09/28 07:54:35;;;;;;;13.20;8.77;;;;;;;20.97;66.48;93956.97;5111366;28;20230;-78
2022/09/28 07:57:01;;;;;;;24.15;13.95;;;;;;;20.50;67.94;93899.25;5111417;28;20233;-78
2022/09/28 07:59:26;;;;;;;12.73;7.20;;;;;;;20.68;66.28;93962.56;5111552;28;20172;-78
2022/09/28 08:01:51;;;;;;;12.38;6.88;;;;;;;20.08;67.20;93918.94;5111333;28;20265;-78
2022/09/28 08:04:17;;;;;;;15.27;7.07;;;;;;;19.97;69.11;93969.09;5111239;28;20662;-78
2022/09/28 08:06:43;;;;;;;10.32;7.53;;;;;;;19.19;69.73;93943.75;5112643;28;20168;-79
2022/09/28 08:09:09;;;;;;;14.38;7.25;;;;;;;19.09;71.07;93949.19;5113889;28;20172;-77
2022/09/28 08:11:35;;;;;;;12.65;7.43;;;;;;;19.10;71.91;93953.47;5114982;28;20196;-77
2022/09/28 08:14:01;;;;;;;14.10;7.75;;;;;;;19.46;73.38;93950.31;5114633;28;20919;-77
2022/09/28 08:16:26;;;;;;;15.75;6.47;;;;;;;19.87;70.41;93951.34;5114725;28;20234;-77
2022/09/28 08:18:53;;;;;;;11.65;6.90;;;;;;;19.80;69.47;93937.56;5114797;28;20603;-77
2022/09/28 08:24:04;;;;;;;10.43;6.13;;;;;;;19.89;68.82;93959.09;5108450;28;20180;-76
2022/09/28 08:26:30;;;;;;;13.73;7.65;;;;;;;19.89;71.24;93957.19;5113605;28;20180;-75
2022/09/28 08:28:55;;;;;;;16.98;7.22;;;;;;;20.02;71.10;93963.66;5113951;28;20169;-76
2022/09/28 08:31:21;;;;;;;16.42;6.70;;;;;;;20.57;72.35;93961.19;5114058;28;20205;-76
2022/09/28 08:33:52;;;;;;;15.48;6.75;;;;;;;21.32;70.23;93963.50;5114015;28;20173;-76
2022/09/28 08:36:18;;;;;;;9.73;6.18;;;;;;;21.48;66.56;93972.81;5113897;28;20221;-76
2022/09/28 08:38:43;;;;;;;12.43;6.03;;;;;;;21.80;65.89;93979.88;5113918;28;20591;-76
2022/09/28 08:41:16;;;;;;;14.95;6.43;;;;;;;22.12;64.69;93966.31;5109021;28;20618;-75
2022/09/28 08:43:56;;;;;;;20.95;6.72;;;;;;;22.32;60.61;93964.22;5113543;28;20165;-76
2022/09/28 08:46:25;;;;;;;11.48;5.50;;;;;;;22.26;61.39;93939.44;5113855;28;20678;-75
2022/09/28 08:48:57;;;;;;;14.05;6.30;;;;;;;22.53;60.69;93966.09;5113861;28;20177;-76
2022/09/28 08:51:44;;;;;;;9.90;5.72;;;;;;;22.79;59.74;93954.75;5113789;28;20177;-76
2022/09/28 08:54:24;;;;;;;17.25;5.20;;;;;;;22.69;59.53;93942.34;5113677;28;20736;-75
2022/09/28 08:57:02;;;;;;;9.25;6.20;;;;;;;22.52;61.09;93945.72;5110938;28;20659;-76
2022/09/28 08:59:40;;;;;;;12.27;5.00;;;;;;;22.56;62.84;93951.28;5113739;28;20185;-76
2022/09/28 09:02:14;;;;;;;14.93;5.35;;;;;;;22.61;61.22;93947.66;5114478;27;20169;-79
2022/09/28 09:04:39;;;;;;;12.18;5.55;;;;;;;22.78;63.16;93945.91;5113268;28;20254;-76
2022/09/28 09:07:26;;;;;;;15.85;5.82;;;;;;;22.84;61.56;93935.81;5105971;28;20181;-76
2022/09/28 09:10:17;;;;;;;7.72;5.03;;;;;;;23.16;63.53;93935.47;5113497;28;20647;-76
2022/09/28 09:13:02;;;;;;;11.07;5.28;;;;;;;23.29;58.31;93939.13;5113490;28;20176;-75
2022/09/28 09:15:39;;;;;;;11.82;5.25;;;;;;;23.17;58.69;93929.00;5111802;28;20223;-75
2022/09/28 09:18:13;;;;;;;12.07;5.40;;;;;;;23.12;60.20;93928.31;5112776;28;20185;-75
2022/09/28 09:20:52;;;;;;;10.02;4.63;;;;;;;23.17;60.83;93929.00;5108993;28;20181;-76
2022/09/28 09:23:34;;;;;;;12.73;4.78;;;;;;;23.09;58.33;93921.69;5111996;28;20256;-75
2022/09/28 09:26:07;;;;;;;13.27;4.65;;;;;;;22.95;57.98;93905.69;5110813;28;20193;-76
2022/09/28 09:28:46;;;;;;;10.13;4.45;;;;;;;23.10;61.46;93920.56;5110700;28;20177;-76
2022/09/28 09:31:58;;;;;;;12.27;3.95;;;;;;;23.13;59.47;93919.97;5107079;28;20256;-76
2022/09/28 09:34:29;;;;;;;8.00;4.18;;;;;;;23.23;60.13;93914.31;5112771;28;20180;-76
2022/09/28 09:37:04;;;;;;;7.03;3.70;;;;;;;23.32;58.33;93920.50;5112680;28;20224;-76
2022/09/28 09:39:44;;;;;;;20.63;5.00;;;;;;;23.04;58.86;93912.97;5111060;28;20654;-75
2022/09/28 09:42:17;;;;;;;11.88;4.65;;;;;;;22.78;60.89;93905.63;5110690;28;20176;-75
2022/09/28 09:45:00;;;;;;;6.43;4.75;;;;;;;22.72;61.96;93919.47;5111491;28;20188;-76
2022/09/28 09:47:55;;;;;;;7.90;4.32;;;;;;;22.56;59.43;93913.72;5112286;28;20173;-75
2022/09/28 09:50:29;;;;;;;8.35;4.22;;;;;;;22.25;61.33;93902.19;5097823;28;20217;-75
2022/09/28 09:53:01;;;;;;;8.65;4.10;;;;;;;22.29;61.23;93909.31;5111943;28;20244;-75
2022/09/28 09:55:43;;;;;;;11.35;4.50;;;;;;;22.34;61.70;93909.19;5111480;28;20260;-74
2022/09/28 09:58:18;;;;;;;9.25;4.25;;;;;;;22.08;59.47;93866.13;5106760;28;20649;-75
2022/09/28 10:00:48;;;;;;;8.75;4.47;;;;;;;22.44;61.86;93914.28;5111853;28;20224;-75
2022/09/28 10:03:22;;;;;;;8.65;3.45;;;;;;;22.38;59.16;93902.13;5112048;28;20747;-75
2022/09/28 10:05:55;;;;;;;8.10;3.72;;;;;;;22.25;59.37;93911.03;5111300;28;20195;-75
2022/09/28 10:08:22;;;;;;;7.30;3.97;;;;;;;22.05;60.21;93898.13;5109187;28;20169;-75
2022/09/28 10:10:53;;;;;;;10.80;3.72;;;;;;;22.08;59.74;93911.72;5110228;28;20188;-75
2022/09/28 10:13:18;;;;;;;12.75;4.03;;;;;;;22.15;60.30;93906.69;5110335;28;20177;-75
2022/09/28 10:15:46;;;;;;;7.80;3.83;;;;;;;22.23;60.68;93901.72;5109731;28;20179;-75
2022/09/28 10:18:15;;;;;;;10.60;3.65;;;;;;;22.33;60.25;93885.34;5110605;28;20171;-75
2022/09/28 10:20:43;;;;;;;10.10;3.42;;;;;;;22.20;59.19;93893.19;5110472;28;20181;-75
2022/09/28 10:23:26;;;;;;;9.60;3.50;;;;;;;22.11;59.20;93900.38;5110233;28;20168;-75
2022/09/28 10:25:55;;;;;;;4.72;2.63;;;;;;;22.16;59.64;93889.53;5111331;28;20751;-75
2022/09/28 10:28:41;;;;;;;5.40;2.53;;;;;;;22.29;61.15;93887.06;5111174;28;20173;-75
2022/09/28 10:31:33;;;;;;;6.40;3.33;;;;;;;22.32;58.92;93881.88;5110965;28;20173;-75
2022/09/28 10:33:58;;;;;;;5.95;2.95;;;;;;;22.34;58.00;93876.22;5109791;28;20173;-75
2022/09/28 10:36:25;;;;;;;8.02;2.17;;;;;;;22.36;56.07;93880.16;5110978;28;20714;-75
2022/09/28 10:38:51;;;;;;;7.28;1.75;;;;;;;22.36;58.52;93876.69;5110830;28;20214;-75
2022/09/28 10:41:17;;;;;;;9.45;2.55;;;;;;;22.44;58.68;93875.94;5111032;28;20201;-75
2022/09/28 10:44:05;;;;;;;8.05;2.22;;;;;;;22.48;56.83;93864.31;5110948;28;20683;-75
2022/09/28 10:46:33;;;;;;;6.38;2.13;;;;;;;22.61;59.16;93862.59;5111025;28;20185;-74
2022/09/28 10:49:05;;;;;;;7.13;2.42;;;;;;;22.75;59.54;93860.63;5111255;28;20216;-75
2022/09/28 10:51:45;;;;;;;11.27;2.88;;;;;;;22.81;55.33;93855.91;5110666;28;20188;-75
2022/09/28 10:54:15;;;;;;;5.10;2.00;;;;;;;22.95;54.09;93859.25;5110933;28;20681;-75
2022/09/28 10:56:40;;;;;;;9.50;2.55;;;;;;;23.03;55.48;93863.88;5102039;28;20237;-75
2022/09/28 10:59:27;;;;;;;2.53;1.40;;;;;;;23.05;53.46;93848.25;5110695;28;20173;-75
2022/09/28 11:01:56;;;;;;;4.43;1.35;;;;;;;23.19;53.35;93837.34;5110605;28;20229;-75
2022/09/28 11:04:29;;;;;;;5.10;1.50;;;;;;;23.20;52.10;93849.66;5110529;28;20275;-75
2022/09/28 11:06:58;;;;;;;5.55;2.38;;;;;;;23.10;51.65;93828.50;5110419;28;20208;-75
2022/09/28 11:09:30;;;;;;;5.30;2.30;;;;;;;23.21;52.77;93843.19;5111047;28;20181;-75
2022/09/28 11:11:58;;;;;;;10.10;2.60;;;;;;;23.29;54.45;93832.47;5110837;28;20165;-75
2022/09/28 11:14:35;;;;;;;7.40;2.45;;;;;;;23.44;54.70;93838.50;5109676;28;20658;-75
2022/09/28 11:17:30;;;;;;;6.63;2.30;;;;;;;23.47;54.40;93830.56;5108797;28;20204;-75
2022/09/28 11:20:16;;;;;;;9.55;1.95;;;;;;;23.43;51.38;93826.97;5108930;28;20165;-75
2022/09/28 11:22:43;;;;;;;4.53;2.08;;;;;;;23.30;51.26;93828.69;5105611;28;20542;-76
2022/09/28 11:25:11;;;;;;;5.80;2.40;;;;;;;23.32;54.14;93831.06;5106621;28;20199;-75
2022/09/28 11:27:37;;;;;;;6.38;2.40;;;;;;;23.17;53.21;93792.03;5110490;28;20210;-75
2022/09/28 11:30:03;;;;;;;6.18;2.30;;;;;;;23.42;51.62;93800.41;5104668;28;20276;-75
2022/09/28 11:32:40;;;;;;;2.83;1.50;;;;;;;23.46;48.69;93820.94;5111158;28;20181;-75
2022/09/28 11:35:15;;;;;;;2.35;1.77;;;;;;;23.57;50.48;93811.47;5110881;28;20203;-75
2022/09/28 11:38:05;;;;;;;4.47;1.67;;;;;;;23.79;54.00;93809.72;5100443;28;20620;-75
2022/09/28 11:40:51;;;;;;;5.15;2.10;;;;;;;23.86;53.97;93813.50;5111592;28;20620;-75
2022/09/28 11:43:19;;;;;;;4.35;1.65;;;;;;;23.81;49.82;93819.03;5115029;28;20256;-75